Kasterlee, Belgium
Current Conditions -  °F | °C
As of 2:25 PM on Wednesday 26 Nov 2014 (Local Time) from EBDT Reporting Station
Broken Clouds Broken Clouds  
Wind Chill: 42°   Ceiling: 1600
Heat Index: 45°   Visibility: 4mi
Dew Point: 41°   Wind: 5mph
Humidity: 87%   Direction: 90°E
Pressure: 29.88"   Gusts: NA
Location:  51.24°N, 4.97°E
Report Text: EBDT 261325Z 09004KT 7000 FEW012 BKN016 07/05 Q1012 WHT WHT TEMPO GRN
Loading
Personal Weather Stations






























Interactive Weather Map New forecast layout! Learn more

10-Day Weather Forecast

Advertisements
Track Severe Weather on mobile